Time;durP1;ratioP1;P1;durP2;ratioP2;P2;SDS_P1;SDS_P2;PMS_P1;PMS_P2;Temp;Humidity;BMP_temperature;BMP_pressure;BME280_temperature;BME280_humidity;BME280_pressure;Samples;Min_cycle;Max_cycle;Signal;HPM_P1;HPM_P2
2022/12/08 00:02:43;;;;;;;2.27;1.87;;;;;;;-0.99;94.65;97426.81;6245922;28;20313;-63
2022/12/08 00:09:22;;;;;;;3.97;1.90;;;;;;;-0.94;94.68;97417.13;6262114;28;20317;-63
2022/12/08 00:12:24;;;;;;;2.73;1.87;;;;;;;-0.90;94.70;97418.69;6262840;28;20238;-63
2022/12/08 00:15:26;;;;;;;3.30;1.90;;;;;;;-0.86;94.83;97422.00;6266500;28;20231;-63
2022/12/08 00:18:28;;;;;;;3.13;1.90;;;;;;;-0.87;94.75;97420.31;6266399;28;20226;-63
2022/12/08 00:21:30;;;;;;;4.67;2.17;;;;;;;-0.87;94.74;97408.22;6265296;28;20223;-63
2022/12/08 00:24:34;;;;;;;3.47;1.80;;;;;;;-0.85;95.02;97410.75;6266847;28;20280;-63
2022/12/08 00:27:36;;;;;;;1.70;1.47;;;;;;;-0.83;95.19;97409.78;6260184;28;20231;-63
2022/12/08 00:30:40;;;;;;;2.33;1.80;;;;;;;-0.80;94.99;97406.25;6266233;28;20218;-63
2022/12/08 00:33:42;;;;;;;1.70;1.60;;;;;;;-0.76;95.17;97415.56;6266365;28;20227;-63
2022/12/08 00:36:44;;;;;;;3.00;1.83;;;;;;;-0.73;95.26;97422.38;6264252;28;20262;-63
2022/12/08 00:39:46;;;;;;;2.03;1.70;;;;;;;-0.72;94.69;97408.53;6266905;28;20702;-63
2022/12/08 00:42:48;;;;;;;1.67;1.50;;;;;;;-0.72;95.29;97405.94;6264858;28;20350;-63
2022/12/08 00:45:51;;;;;;;1.83;1.63;;;;;;;-0.71;95.10;97412.81;6266249;28;20607;-63
2022/12/08 00:48:53;;;;;;;1.53;1.37;;;;;;;-0.71;94.85;97397.25;6265114;28;20230;-63
2022/12/08 00:51:55;;;;;;;2.53;1.80;;;;;;;-0.70;94.91;97398.94;6248845;28;20234;-63
2022/12/08 00:54:57;;;;;;;2.10;1.90;;;;;;;-0.68;94.62;97408.31;6246558;28;20231;-63
2022/12/08 00:57:59;;;;;;;1.40;1.20;;;;;;;-0.66;94.90;97409.13;6266274;28;20230;-63
2022/12/08 01:01:08;;;;;;;2.03;1.40;;;;;;;-0.65;94.98;97413.41;6264145;28;20219;-63
2022/12/08 01:04:14;;;;;;;2.23;1.40;;;;;;;-0.62;95.37;97408.09;6264095;28;20281;-63
2022/12/08 01:07:16;;;;;;;2.30;1.67;;;;;;;-0.63;95.30;97402.97;6263950;28;20384;-63
2022/12/08 01:10:18;;;;;;;1.40;1.23;;;;;;;-0.62;95.04;97405.50;6265458;28;20229;-63
2022/12/08 01:13:20;;;;;;;1.40;1.20;;;;;;;-0.61;94.79;97398.56;6267379;28;20751;-63
2022/12/08 01:16:28;;;;;;;1.30;1.13;;;;;;;-0.60;94.88;97395.91;6260860;28;20270;-63
2022/12/08 01:19:30;;;;;;;1.40;1.30;;;;;;;-0.58;95.58;97398.44;6264687;28;20741;-63
2022/12/08 01:22:34;;;;;;;1.27;1.17;;;;;;;-0.56;95.54;97391.44;6247122;28;20332;-62
2022/12/08 01:25:37;;;;;;;1.40;1.10;;;;;;;-0.55;95.32;97388.78;6248347;28;20226;-63
2022/12/08 01:28:39;;;;;;;2.70;1.10;;;;;;;-0.51;95.64;97386.94;6267114;28;20223;-63
2022/12/08 01:31:41;;;;;;;1.70;1.10;;;;;;;-0.49;95.09;97387.69;6264537;28;20252;-63
2022/12/08 01:34:43;;;;;;;1.63;1.30;;;;;;;-0.47;95.37;97385.88;6269301;28;20317;-63
2022/12/08 01:37:45;;;;;;;1.67;1.50;;;;;;;-0.43;95.51;97382.28;6266104;28;20246;-63
2022/12/08 01:40:48;;;;;;;2.10;1.20;;;;;;;-0.40;95.56;97387.34;6268689;28;20709;-63
2022/12/08 01:44:00;;;;;;;1.57;1.10;;;;;;;-0.40;95.59;97388.16;6270413;28;20260;-63
2022/12/08 01:47:02;;;;;;;1.20;1.10;;;;;;;-0.35;94.84;97390.56;6266760;28;20246;-63
2022/12/08 01:50:07;;;;;;;1.60;1.17;;;;;;;-0.33;95.38;97372.34;6254938;28;20375;-63
2022/12/08 01:53:21;;;;;;;2.37;1.10;;;;;;;-0.33;94.66;97370.63;6268462;28;20257;-63
2022/12/08 01:56:49;;;;;;;1.77;1.10;;;;;;;-0.34;94.76;97371.50;6266291;28;20233;-63
2022/12/08 02:00:19;;;;;;;1.83;1.00;;;;;;;-0.36;95.03;97365.53;6253783;28;20824;-63
2022/12/08 02:03:27;;;;;;;1.43;1.00;;;;;;;-0.37;94.91;97363.84;6263941;28;20233;-63
2022/12/08 02:06:35;;;;;;;1.57;1.10;;;;;;;-0.36;94.94;97370.72;6269379;28;20313;-63
2022/12/08 02:09:38;;;;;;;1.40;1.20;;;;;;;-0.32;94.90;97369.72;6269300;28;20230;-63
2022/12/08 02:12:40;;;;;;;1.90;1.30;;;;;;;-0.32;94.72;97361.09;6268608;28;20241;-63
2022/12/08 02:16:03;;;;;;;1.83;1.07;;;;;;;-0.33;95.12;97356.81;6254677;28;20230;-63
2022/12/08 02:19:55;;;;;;;1.10;1.00;;;;;;;-0.33;95.38;97352.47;6263740;28;20771;-64
2022/12/08 02:23:00;;;;;;;1.47;1.10;;;;;;;-0.31;94.74;97347.22;6127589;28;20761;-63
2022/12/08 02:26:14;;;;;;;1.10;1.00;;;;;;;-0.29;94.67;97342.78;6141476;28;20349;-63
2022/12/08 02:29:51;;;;;;;0.90;0.90;;;;;;;-0.29;95.39;97341.03;6126860;28;20382;-63
2022/12/08 02:32:54;;;;;;;1.60;1.30;;;;;;;-0.32;95.13;97330.81;6145047;28;20234;-63
2022/12/08 02:36:23;;;;;;;1.40;0.90;;;;;;;-0.31;95.00;97329.06;6142971;28;20238;-63
2022/12/08 02:40:04;;;;;;;1.23;1.10;;;;;;;-0.33;95.39;97323.94;6142739;28;20242;-63
2022/12/08 02:43:49;;;;;;;1.10;1.00;;;;;;;-0.31;95.12;97321.28;6134333;28;20246;-63
2022/12/08 02:47:04;;;;;;;1.13;1.03;;;;;;;-0.32;94.94;97309.22;6035239;29;20749;-63
2022/12/08 02:50:07;;;;;;;1.20;1.10;;;;;;;-0.33;95.51;97313.56;6052030;29;20296;-63
2022/12/08 02:53:09;;;;;;;1.17;0.87;;;;;;;-0.32;95.23;97306.66;6047931;29;20312;-63
2022/12/08 02:56:15;;;;;;;1.00;0.90;;;;;;;-0.32;95.23;97315.25;6049180;29;20267;-63
2022/12/08 02:59:50;;;;;;;0.87;0.80;;;;;;;-0.32;95.18;97310.09;6134356;28;20663;-63
2022/12/08 03:03:12;;;;;;;1.30;1.10;;;;;;;-0.30;95.74;97310.84;6141610;28;20234;-63
2022/12/08 03:06:27;;;;;;;1.10;1.00;;;;;;;-0.30;95.26;97308.25;6144079;28;20316;-63
2022/12/08 03:09:49;;;;;;;1.27;1.00;;;;;;;-0.30;95.21;97303.06;6141912;28;20227;-63
2022/12/08 03:12:58;;;;;;;1.20;0.83;;;;;;;-0.30;95.75;97300.47;6134346;28;20350;-63
2022/12/08 03:16:03;;;;;;;0.80;0.80;;;;;;;-0.30;95.41;97294.47;6143088;28;20616;-63
2022/12/08 03:19:16;;;;;;;1.87;1.00;;;;;;;-0.29;95.35;97296.97;6144624;28;20240;-63
2022/12/08 03:22:24;;;;;;;1.10;1.00;;;;;;;-0.31;95.46;97285.84;6161708;28;20388;-63
2022/12/08 03:25:30;;;;;;;0.83;0.77;;;;;;;-0.31;95.52;97288.44;6266000;28;20372;-63
2022/12/08 03:28:32;;;;;;;1.23;1.13;;;;;;;-0.30;95.48;97282.31;6265537;28;20243;-63
2022/12/08 03:31:40;;;;;;;2.27;1.10;;;;;;;-0.31;95.52;97280.66;6269582;28;20222;-63
2022/12/08 03:34:47;;;;;;;1.23;1.10;;;;;;;-0.30;95.71;97279.72;6267299;28;20235;-63
2022/12/08 03:37:49;;;;;;;1.00;0.90;;;;;;;-0.27;95.60;97281.34;6266039;28;20235;-63
2022/12/08 03:44:12;;;;;;;1.70;0.80;;;;;;;-0.28;95.28;97271.88;6264074;28;20231;-63
2022/12/08 03:47:14;;;;;;;1.00;0.90;;;;;;;-0.27;95.37;97270.97;6246255;28;20211;-63
2022/12/08 03:50:16;;;;;;;0.90;0.90;;;;;;;-0.24;95.32;97270.84;6265570;28;20233;-63
2022/12/08 03:53:18;;;;;;;1.10;1.00;;;;;;;-0.24;95.53;97263.06;6247950;28;20507;-63
2022/12/08 03:56:27;;;;;;;2.10;0.80;;;;;;;-0.23;95.94;97265.59;6268482;28;20223;-63
2022/12/08 03:59:29;;;;;;;0.93;0.80;;;;;;;-0.22;95.93;97254.31;6262429;28;20235;-63
2022/12/08 04:02:31;;;;;;;0.77;0.77;;;;;;;-0.21;95.80;97250.81;6271704;28;20307;-63
2022/12/08 04:05:33;;;;;;;1.10;0.90;;;;;;;-0.22;95.55;97251.72;6267843;28;20242;-63
2022/12/08 04:08:35;;;;;;;0.77;0.67;;;;;;;-0.23;96.17;97257.81;6265775;28;20608;-63
2022/12/08 04:11:37;;;;;;;0.73;0.73;;;;;;;-0.21;95.55;97250.81;6267748;28;20230;-63
2022/12/08 04:14:39;;;;;;;1.20;1.10;;;;;;;-0.19;95.70;97248.13;6265514;28;20949;-63
2022/12/08 04:17:41;;;;;;;2.00;1.30;;;;;;;-0.20;95.31;97247.28;6247700;28;20702;-63
2022/12/08 04:20:44;;;;;;;0.90;0.80;;;;;;;-0.22;95.64;97243.97;6264041;28;20230;-63
2022/12/08 04:23:46;;;;;;;1.43;0.90;;;;;;;-0.24;95.76;97247.50;6265014;28;20240;-63
2022/12/08 04:26:49;;;;;;;1.33;1.20;;;;;;;-0.25;95.78;97236.31;6260284;28;20242;-63
2022/12/08 04:29:51;;;;;;;2.07;1.33;;;;;;;-0.25;95.17;97236.31;6267706;28;20307;-63
2022/12/08 04:32:53;;;;;;;1.30;0.90;;;;;;;-0.25;95.11;97236.31;6264830;28;20240;-63
2022/12/08 04:35:56;;;;;;;1.30;1.07;;;;;;;-0.23;95.54;97239.69;6267758;28;20709;-64
2022/12/08 04:38:58;;;;;;;1.80;1.37;;;;;;;-0.21;95.72;97235.28;6265616;28;20242;-63
2022/12/08 04:42:00;;;;;;;1.00;0.90;;;;;;;-0.24;95.27;97229.38;6265945;28;20222;-64
2022/12/08 04:45:04;;;;;;;1.60;1.10;;;;;;;-0.24;95.12;97221.59;6267203;28;20243;-64
2022/12/08 04:48:07;;;;;;;1.50;1.40;;;;;;;-0.24;95.49;97229.38;6266192;28;20683;-63
2022/12/08 04:51:18;;;;;;;1.03;0.93;;;;;;;-0.23;95.55;97223.28;6266036;28;20233;-63
2022/12/08 04:54:20;;;;;;;1.20;1.10;;;;;;;-0.24;95.05;97221.59;6262966;28;20231;-63
2022/12/08 04:57:22;;;;;;;1.47;1.33;;;;;;;-0.23;95.23;97216.34;6265065;28;20222;-63
2022/12/08 05:00:24;;;;;;;1.10;1.00;;;;;;;-0.20;95.24;97215.38;6267279;28;20260;-64
2022/12/08 05:03:26;;;;;;;1.50;1.00;;;;;;;-0.17;95.79;97210.88;6265668;28;20227;-63
2022/12/08 05:06:29;;;;;;;1.13;1.03;;;;;;;-0.14;95.54;97212.50;6263770;28;20223;-63
2022/12/08 05:09:31;;;;;;;1.50;1.40;;;;;;;-0.13;95.44;97207.22;6263938;28;20222;-63
2022/12/08 05:12:33;;;;;;;1.57;1.47;;;;;;;-0.14;95.55;97196.94;6263943;28;20229;-63
2022/12/08 05:15:35;;;;;;;1.53;1.30;;;;;;;-0.15;95.86;97203.03;6247402;28;20353;-63
2022/12/08 05:18:39;;;;;;;1.80;1.53;;;;;;;-0.14;96.09;97197.78;6266887;28;20755;-63
2022/12/08 05:21:41;;;;;;;1.97;1.70;;;;;;;-0.14;95.80;97197.78;6262242;28;20230;-63
2022/12/08 05:24:43;;;;;;;2.83;1.80;;;;;;;-0.12;95.90;97201.16;6262949;28;20360;-63
2022/12/08 05:27:48;;;;;;;1.80;1.40;;;;;;;-0.11;96.11;97204.56;6265889;28;20246;-63
2022/12/08 05:30:50;;;;;;;1.50;1.33;;;;;;;-0.09;95.73;97207.91;6265050;28;20858;-63
2022/12/08 05:33:52;;;;;;;1.70;1.40;;;;;;;-0.08;95.95;97207.84;6265437;28;20229;-63
2022/12/08 05:36:54;;;;;;;4.10;1.57;;;;;;;-0.08;95.79;97210.44;6261817;28;20605;-63
2022/12/08 05:39:56;;;;;;;1.60;1.50;;;;;;;-0.08;95.56;97207.84;6246412;28;20425;-63
2022/12/08 05:42:58;;;;;;;1.60;1.50;;;;;;;-0.09;95.83;97210.50;6260582;28;20227;-63
2022/12/08 05:46:00;;;;;;;2.00;1.60;;;;;;;-0.11;95.92;97205.41;6264636;28;20597;-63
2022/12/08 05:49:03;;;;;;;1.93;1.70;;;;;;;-0.11;95.79;97207.16;6242833;28;20313;-63
2022/12/08 05:52:05;;;;;;;2.13;1.87;;;;;;;-0.11;95.96;97205.41;6263228;28;20241;-63
2022/12/08 05:55:07;;;;;;;2.10;1.90;;;;;;;-0.12;96.01;97201.16;6264663;28;20650;-63
2022/12/08 05:58:13;;;;;;;4.63;2.00;;;;;;;-0.11;96.09;97199.41;6263630;28;20658;-63
2022/12/08 06:01:24;;;;;;;1.70;1.50;;;;;;;-0.11;96.09;97196.78;6251560;28;20605;-63
2022/12/08 06:04:26;;;;;;;1.73;1.63;;;;;;;-0.10;96.13;97199.28;6259935;28;20359;-63
2022/12/08 06:07:29;;;;;;;2.47;2.20;;;;;;;-0.09;96.47;97197.53;6264617;28;20519;-63
2022/12/08 06:10:31;;;;;;;3.00;2.70;;;;;;;-0.08;96.15;97191.44;6265924;28;20769;-63
2022/12/08 06:13:33;;;;;;;2.50;2.27;;;;;;;-0.08;96.08;97183.66;6264251;28;20367;-63
2022/12/08 06:16:35;;;;;;;3.10;2.27;;;;;;;-0.07;95.96;97193.13;6249333;28;20379;-63
2022/12/08 06:19:37;;;;;;;2.43;2.17;;;;;;;-0.06;96.61;97185.28;6267958;28;20319;-63
2022/12/08 06:22:39;;;;;;;3.17;2.63;;;;;;;-0.06;96.41;97184.44;6268462;28;20271;-63
2022/12/08 06:25:41;;;;;;;3.57;2.70;;;;;;;-0.05;96.63;97186.97;6264656;28;20706;-63
2022/12/08 06:28:43;;;;;;;4.17;2.70;;;;;;;-0.03;96.99;97190.34;6269057;28;20333;-63
2022/12/08 06:31:45;;;;;;;3.20;2.20;;;;;;;-0.01;97.21;97190.28;6268537;28;20234;-63
2022/12/08 06:34:47;;;;;;;2.83;2.33;;;;;;;0.01;97.06;97183.25;6250504;28;20226;-63
2022/12/08 06:37:50;;;;;;;3.40;2.77;;;;;;;0.02;96.82;97182.34;6267447;28;20229;-63
2022/12/08 06:40:54;;;;;;;2.83;2.53;;;;;;;0.06;96.96;97185.63;6271004;28;20239;-63
2022/12/08 06:43:57;;;;;;;3.87;2.40;;;;;;;0.07;96.89;97184.72;6266527;28;20241;-63
2022/12/08 06:46:59;;;;;;;3.13;1.93;;;;;;;0.09;96.88;97182.91;6249675;28;20238;-63
2022/12/08 06:50:01;;;;;;;3.73;2.17;;;;;;;0.11;96.49;97191.44;6269407;28;20255;-63
2022/12/08 06:53:04;;;;;;;3.47;2.90;;;;;;;0.19;96.75;97182.41;6252574;28;20236;-63
2022/12/08 06:56:07;;;;;;;5.00;2.97;;;;;;;0.25;96.47;97176.91;6268983;28;20250;-63
2022/12/08 06:59:09;;;;;;;7.90;5.70;;;;;;;0.36;96.74;97171.22;6263063;28;20688;-63
2022/12/08 07:02:11;;;;;;;7.20;5.30;;;;;;;0.49;96.87;97185.31;6267543;28;20234;-63
2022/12/08 07:05:13;;;;;;;10.97;7.73;;;;;;;0.70;97.00;97185.97;6267746;28;20223;-63
2022/12/08 07:08:15;;;;;;;8.83;6.17;;;;;;;0.86;96.31;97180.91;6269610;28;20316;-63
2022/12/08 07:11:17;;;;;;;8.30;6.40;;;;;;;0.93;96.62;97179.66;6266153;28;20233;-63
2022/12/08 07:14:23;;;;;;;8.07;6.17;;;;;;;0.96;96.71;97177.75;6268655;28;20237;-63
2022/12/08 07:17:25;;;;;;;8.03;6.43;;;;;;;1.08;96.59;97169.34;6231562;28;20231;-64
2022/12/08 07:20:27;;;;;;;8.40;6.30;;;;;;;1.18;96.37;97174.94;6268405;28;20591;-63
2022/12/08 07:23:30;;;;;;;8.70;6.80;;;;;;;1.24;95.87;97181.56;6265910;28;20241;-63
2022/12/08 07:26:31;;;;;;;9.27;6.63;;;;;;;1.27;96.16;97174.44;6261150;28;20737;-63
2022/12/08 07:29:34;;;;;;;7.00;5.33;;;;;;;1.35;95.69;97174.88;6265580;28;20237;-63
2022/12/08 07:32:37;;;;;;;10.57;6.83;;;;;;;1.42;95.57;97176.25;6250208;28;20234;-63
2022/12/08 07:35:39;;;;;;;7.33;5.63;;;;;;;1.45;95.49;97177.84;6265622;28;20276;-64
2022/12/08 07:38:47;;;;;;;10.00;6.00;;;;;;;1.42;95.35;97183.19;6267567;28;20233;-63
2022/12/08 07:41:49;;;;;;;8.97;6.57;;;;;;;1.36;95.60;97173.97;6268173;28;20234;-63
2022/12/08 07:44:51;;;;;;;8.73;5.87;;;;;;;1.29;95.57;97180.41;6247427;28;20228;-63
2022/12/08 07:47:53;;;;;;;6.97;5.20;;;;;;;1.23;95.60;97177.28;6263809;28;20223;-63
2022/12/08 07:51:00;;;;;;;7.93;6.30;;;;;;;1.18;96.15;97185.31;6263532;28;20227;-63
2022/12/08 07:54:03;;;;;;;9.77;6.83;;;;;;;1.24;96.47;97179.78;6262188;28;20316;-64
2022/12/08 07:57:05;;;;;;;7.73;5.63;;;;;;;1.20;95.98;97180.84;6249106;28;20582;-63
2022/12/08 08:00:09;;;;;;;7.60;5.87;;;;;;;1.15;95.91;97182.03;6266704;28;20239;-63
2022/12/08 08:03:14;;;;;;;7.40;5.33;;;;;;;1.07;95.93;97178.06;6261924;28;20713;-63
2022/12/08 08:06:16;;;;;;;7.43;5.80;;;;;;;1.13;96.34;97178.66;6265347;28;20705;-63
2022/12/08 08:09:18;;;;;;;5.60;4.27;;;;;;;1.07;95.97;97180.66;6263969;28;20306;-63
2022/12/08 08:12:20;;;;;;;7.40;5.37;;;;;;;1.06;96.09;97184.19;6264713;28;20727;-63
2022/12/08 08:15:32;;;;;;;8.00;4.83;;;;;;;1.15;96.63;97174.22;6268249;28;20266;-63
2022/12/08 08:18:39;;;;;;;7.40;5.40;;;;;;;1.19;95.97;97171.41;6260606;28;20234;-64
2022/12/08 08:21:41;;;;;;;7.17;5.67;;;;;;;1.24;96.02;97174.59;6266286;28;20254;-63
2022/12/08 08:24:47;;;;;;;6.40;5.30;;;;;;;1.37;96.35;97182.63;6266389;28;20226;-63
2022/12/08 08:27:49;;;;;;;6.57;5.20;;;;;;;1.36;95.58;97188.72;6264487;28;20218;-63
2022/12/08 08:30:51;;;;;;;8.77;5.43;;;;;;;1.29;96.05;97180.41;6269257;28;20782;-63
2022/12/08 08:33:53;;;;;;;6.20;4.90;;;;;;;1.23;96.03;97185.06;6265452;28;20367;-63
2022/12/08 08:36:55;;;;;;;6.00;4.67;;;;;;;1.19;96.38;97179.22;6267999;28;20791;-63
2022/12/08 08:39:57;;;;;;;6.03;4.90;;;;;;;1.20;96.64;97190.44;6246302;28;20238;-63
2022/12/08 08:43:00;;;;;;;4.50;4.00;;;;;;;1.13;96.48;97189.91;6265980;28;20222;-63
2022/12/08 08:46:04;;;;;;;5.63;4.50;;;;;;;1.06;96.88;97181.59;6229842;28;20226;-63
2022/12/08 08:49:06;;;;;;;4.77;3.93;;;;;;;1.06;97.07;97178.13;6263808;28;20305;-63
2022/12/08 08:52:08;;;;;;;7.37;4.60;;;;;;;1.09;96.78;97178.84;6264761;28;20247;-63
2022/12/08 08:55:10;;;;;;;5.13;3.93;;;;;;;1.15;96.82;97177.66;6268383;28;20226;-63
2022/12/08 08:58:12;;;;;;;4.23;3.60;;;;;;;1.25;96.47;97180.63;6263389;28;20219;-63
2022/12/08 09:01:17;;;;;;;5.13;3.87;;;;;;;1.29;95.90;97175.22;6267467;28;20239;-63
2022/12/08 09:04:23;;;;;;;4.50;3.77;;;;;;;1.35;95.86;97181.84;6263612;28;20231;-63
2022/12/08 09:07:25;;;;;;;5.97;3.87;;;;;;;1.46;95.69;97187.34;6265636;28;20252;-63
2022/12/08 09:10:27;;;;;;;7.30;4.27;;;;;;;1.62;95.84;97180.41;6266966;28;20235;-63
2022/12/08 09:13:29;;;;;;;4.37;3.60;;;;;;;1.81;95.19;97175.91;6261659;28;20243;-63
2022/12/08 09:16:31;;;;;;;4.43;3.50;;;;;;;2.04;95.39;97181.63;6265176;28;20233;-63
2022/12/08 09:19:39;;;;;;;5.50;3.37;;;;;;;2.26;94.91;97173.50;6264667;28;20235;-63
2022/12/08 09:22:41;;;;;;;5.67;4.23;;;;;;;2.43;94.39;97169.03;6264766;28;20281;-63
2022/12/08 09:25:44;;;;;;;5.23;4.30;;;;;;;2.59;93.64;97162.03;6263474;28;20229;-63
2022/12/08 09:28:48;;;;;;;4.97;3.57;;;;;;;2.75;92.29;97153.34;6264425;28;20234;-63
2022/12/08 09:31:51;;;;;;;4.53;3.83;;;;;;;2.99;91.56;97153.69;6245244;28;20236;-63
2022/12/08 09:34:53;;;;;;;5.90;4.57;;;;;;;3.36;89.00;97149.75;6264649;28;20232;-64
2022/12/08 09:37:55;;;;;;;6.10;5.17;;;;;;;3.70;87.66;97141.53;6264840;28;20232;-63
2022/12/08 09:40:58;;;;;;;8.13;4.77;;;;;;;4.11;85.15;97141.56;6264199;28;20230;-63
2022/12/08 09:44:23;;;;;;;5.90;4.47;;;;;;;4.34;83.54;97146.19;6244060;28;20258;-63
2022/12/08 09:47:27;;;;;;;5.07;4.57;;;;;;;4.39;83.26;97138.06;6247852;28;20235;-63
2022/12/08 09:50:51;;;;;;;6.10;3.87;;;;;;;4.35;84.36;97133.97;6247563;28;20679;-64
2022/12/08 09:54:02;;;;;;;4.10;3.70;;;;;;;4.31;82.84;97122.84;6265482;28;20329;-65
2022/12/08 09:57:14;;;;;;;5.73;4.50;;;;;;;4.49;83.69;97109.56;6265022;28;20289;-64
2022/12/08 10:00:17;;;;;;;5.13;4.23;;;;;;;4.74;81.58;97104.38;6264005;28;20611;-63
2022/12/08 10:03:26;;;;;;;6.17;4.87;;;;;;;4.86;81.07;97105.34;6271532;28;20303;-63
2022/12/08 10:06:41;;;;;;;4.37;3.80;;;;;;;4.79;81.42;97097.09;6270389;28;20215;-63
2022/12/08 10:10:06;;;;;;;4.10;3.50;;;;;;;4.59;82.31;97100.19;6267003;28;20235;-63
2022/12/08 10:13:49;;;;;;;6.00;3.80;;;;;;;4.57;82.37;97095.06;6268369;28;20235;-63
2022/12/08 10:16:56;;;;;;;5.67;4.13;;;;;;;4.60;81.08;97094.84;6264568;28;20238;-64
2022/12/08 10:20:11;;;;;;;4.03;3.43;;;;;;;4.69;81.77;97090.81;6265833;28;20243;-63
2022/12/08 10:23:16;;;;;;;4.27;3.40;;;;;;;4.74;81.24;97079.09;6265763;28;20314;-63
2022/12/08 10:26:20;;;;;;;3.80;3.00;;;;;;;4.79;80.70;97073.56;6264142;28;20216;-63
2022/12/08 10:29:22;;;;;;;7.07;3.17;;;;;;;4.75;79.46;97072.09;6268075;28;20694;-63
2022/12/08 10:32:34;;;;;;;4.60;3.30;;;;;;;4.77;80.32;97071.06;6251118;28;20318;-63
2022/12/08 10:35:47;;;;;;;4.60;3.10;;;;;;;4.79;80.65;97077.00;6250306;28;20230;-63
2022/12/08 10:38:49;;;;;;;4.00;2.97;;;;;;;4.84;79.70;97071.47;6263596;28;22684;-64
2022/12/08 10:41:51;;;;;;;3.27;2.47;;;;;;;4.65;78.66;97052.72;6266806;28;20238;-63
2022/12/08 10:44:56;;;;;;;4.00;2.60;;;;;;;4.65;78.74;97057.97;6268823;28;20231;-63
2022/12/08 10:48:17;;;;;;;2.63;2.00;;;;;;;4.75;78.69;97038.94;6266245;28;20235;-63
2022/12/08 10:51:27;;;;;;;3.63;2.33;;;;;;;4.94;78.78;97042.94;6267106;28;20234;-63
2022/12/08 10:54:37;;;;;;;5.93;2.60;;;;;;;4.98;78.45;97040.00;6266908;28;20702;-63
2022/12/08 10:57:39;;;;;;;3.43;2.23;;;;;;;5.10;78.03;97035.69;6268121;28;20215;-64
2022/12/08 11:00:41;;;;;;;2.73;2.50;;;;;;;5.10;78.38;97033.09;6266708;28;20249;-63
2022/12/08 11:04:00;;;;;;;3.30;2.80;;;;;;;4.97;77.62;97029.66;6235760;28;20637;-64
2022/12/08 11:07:10;;;;;;;4.40;2.97;;;;;;;4.95;77.95;97026.31;6267411;28;20238;-63
2022/12/08 11:10:25;;;;;;;3.03;2.63;;;;;;;5.02;78.00;97017.94;6263927;28;20264;-63
2022/12/08 11:13:29;;;;;;;5.90;3.80;;;;;;;4.87;78.27;97015.53;6267128;28;20351;-64
2022/12/08 11:16:31;;;;;;;5.07;4.10;;;;;;;4.79;79.47;97003.81;6267627;28;20232;-63
2022/12/08 11:19:38;;;;;;;8.83;4.43;;;;;;;4.77;79.82;97000.47;6266807;28;20233;-63
2022/12/08 11:22:42;;;;;;;5.30;4.33;;;;;;;4.86;79.28;96999.00;6268257;28;20236;-63
2022/12/08 11:25:45;;;;;;;6.03;4.50;;;;;;;4.92;80.22;96998.59;6261525;28;20699;-63
2022/12/08 11:28:47;;;;;;;6.37;5.10;;;;;;;4.91;79.64;96996.06;6268039;28;20234;-63
2022/12/08 11:31:57;;;;;;;9.53;5.70;;;;;;;4.76;80.53;96993.56;6267078;28;20323;-63
2022/12/08 11:35:06;;;;;;;8.43;5.80;;;;;;;4.69;80.83;96991.50;6266788;28;20246;-63
2022/12/08 11:38:14;;;;;;;8.83;5.90;;;;;;;4.69;81.42;96987.06;6266974;28;20713;-64
2022/12/08 11:41:28;;;;;;;6.67;5.80;;;;;;;4.67;81.76;96988.13;6271753;28;20232;-63
2022/12/08 11:44:48;;;;;;;9.57;6.50;;;;;;;4.65;81.95;96987.41;6247783;28;20253;-63
2022/12/08 11:48:11;;;;;;;9.00;5.43;;;;;;;4.58;81.28;96994.00;6263242;28;20278;-63
2022/12/08 11:51:19;;;;;;;7.67;5.27;;;;;;;4.59;82.05;96985.22;6244027;28;20239;-63
2022/12/08 11:54:26;;;;;;;7.57;5.13;;;;;;;4.63;81.27;96991.88;6266717;28;20319;-63
2022/12/08 11:57:29;;;;;;;7.40;5.10;;;;;;;4.70;81.96;96988.75;6266226;28;20272;-63
2022/12/08 12:00:31;;;;;;;6.47;4.67;;;;;;;4.72;80.95;96989.47;6267490;28;20227;-63
2022/12/08 12:03:39;;;;;;;6.40;4.80;;;;;;;4.71;81.38;96987.81;6265339;28;20258;-63
2022/12/08 12:06:50;;;;;;;8.83;5.17;;;;;;;4.60;81.59;96985.09;6261719;28;20276;-63
2022/12/08 12:10:05;;;;;;;8.53;5.97;;;;;;;4.54;82.00;96982.06;6260586;28;20226;-63
2022/12/08 12:13:26;;;;;;;9.27;6.60;;;;;;;4.44;82.22;96971.38;6256417;28;20766;-63
2022/12/08 12:16:28;;;;;;;10.13;6.33;;;;;;;4.39;82.13;96976.09;6263377;28;20236;-64
2022/12/08 12:19:37;;;;;;;8.73;6.40;;;;;;;4.44;81.84;96974.00;6247326;28;20830;-63
2022/12/08 12:22:43;;;;;;;9.50;5.57;;;;;;;4.47;81.09;96970.34;6263967;28;20231;-63
2022/12/08 12:26:00;;;;;;;10.23;7.13;;;;;;;4.47;81.46;96970.34;6266244;28;20801;-63
2022/12/08 12:29:16;;;;;;;8.10;6.47;;;;;;;4.51;81.36;96971.81;6261406;28;20261;-63
2022/12/08 12:32:19;;;;;;;11.00;7.27;;;;;;;4.50;80.79;96967.50;6244612;28;20322;-63
2022/12/08 12:35:36;;;;;;;11.10;6.90;;;;;;;4.45;81.55;96963.44;6264975;28;20227;-63
2022/12/08 12:39:00;;;;;;;9.63;6.10;;;;;;;4.49;81.65;96965.88;6265586;28;20364;-63
2022/12/08 12:42:03;;;;;;;8.80;6.77;;;;;;;4.44;80.70;96967.00;6261428;28;20374;-63
2022/12/08 12:45:25;;;;;;;8.03;6.50;;;;;;;4.32;82.18;96973.03;6264030;28;20207;-64
2022/12/08 12:48:27;;;;;;;8.63;6.63;;;;;;;4.24;81.62;96964.88;6263051;28;20603;-63
2022/12/08 12:51:38;;;;;;;9.07;6.90;;;;;;;4.24;82.62;96970.09;6263426;28;20278;-63
2022/12/08 12:54:50;;;;;;;10.77;7.20;;;;;;;4.27;82.68;96966.47;6247748;28;20366;-63
2022/12/08 12:57:56;;;;;;;8.60;6.23;;;;;;;4.25;82.02;96963.09;6267169;28;20231;-63
2022/12/08 13:01:51;;;;;;;10.87;6.27;;;;;;;4.23;81.64;96975.44;6260497;28;20376;-64
2022/12/08 13:05:01;;;;;;;8.67;6.90;;;;;;;4.15;81.77;96962.03;6143597;28;20306;-63
2022/12/08 13:08:07;;;;;;;8.27;6.17;;;;;;;4.17;82.50;96963.63;6140780;28;20290;-63
2022/12/08 13:11:10;;;;;;;8.60;5.83;;;;;;;4.17;82.32;96961.03;6141119;28;20243;-63
2022/12/08 13:14:27;;;;;;;7.80;6.00;;;;;;;4.23;82.63;96958.00;6143838;28;20603;-63
2022/12/08 13:17:32;;;;;;;7.47;5.20;;;;;;;4.22;82.03;96950.25;6142526;28;20270;-64
2022/12/08 13:20:46;;;;;;;8.43;5.60;;;;;;;4.20;81.58;96957.34;6143679;28;20228;-63
2022/12/08 13:24:13;;;;;;;6.67;4.70;;;;;;;4.15;81.86;96949.84;6146407;28;20286;-63
2022/12/08 13:27:15;;;;;;;8.33;4.87;;;;;;;4.15;82.51;96949.84;6149539;28;20234;-63
2022/12/08 13:30:43;;;;;;;5.67;4.77;;;;;;;4.21;82.48;96943.34;6148149;28;20223;-63
2022/12/08 13:33:46;;;;;;;10.60;6.73;;;;;;;4.20;82.17;96952.97;6149875;28;20309;-63
2022/12/08 13:37:12;;;;;;;9.00;6.77;;;;;;;4.17;82.43;96950.56;6147361;28;20671;-63
2022/12/08 13:40:20;;;;;;;11.37;8.07;;;;;;;4.06;83.55;96948.66;6178093;28;20236;-63
2022/12/08 13:43:35;;;;;;;10.83;7.87;;;;;;;4.02;83.39;96955.00;6269675;28;20281;-63
2022/12/08 13:46:58;;;;;;;11.50;8.00;;;;;;;4.02;83.47;96956.78;6266588;28;20316;-63
2022/12/08 13:50:28;;;;;;;10.00;7.20;;;;;;;4.02;83.30;96948.97;6265763;28;20229;-63
2022/12/08 13:54:12;;;;;;;11.00;8.00;;;;;;;3.96;83.30;96949.38;6249988;28;20238;-63
2022/12/08 13:57:36;;;;;;;8.73;7.30;;;;;;;3.85;83.69;96944.84;6251625;28;20603;-63
2022/12/08 14:00:38;;;;;;;8.80;6.93;;;;;;;3.87;84.44;96963.03;6262457;28;20625;-64
2022/12/08 14:03:57;;;;;;;8.20;6.00;;;;;;;3.88;84.16;96955.09;6277653;28;20296;-63
2022/12/08 14:07:20;;;;;;;8.83;6.40;;;;;;;3.87;84.47;96953.44;6251127;28;20351;-63
2022/12/08 14:10:26;;;;;;;8.30;6.37;;;;;;;3.87;84.29;96952.59;6271014;28;20308;-63
2022/12/08 14:13:30;;;;;;;11.10;8.03;;;;;;;3.83;84.91;96954.53;6265110;28;20673;-63
2022/12/08 14:16:42;;;;;;;7.63;6.20;;;;;;;3.78;84.78;96958.41;6250867;28;20258;-63
2022/12/08 14:20:03;;;;;;;8.70;7.10;;;;;;;3.74;84.73;96955.16;6267899;28;20334;-63
2022/12/08 14:23:07;;;;;;;11.77;8.30;;;;;;;3.71;84.85;96952.72;6267880;28;20234;-63
2022/12/08 14:26:11;;;;;;;15.70;10.80;;;;;;;3.64;85.64;96943.63;6268815;28;20323;-63
2022/12/08 14:29:44;;;;;;;14.37;10.63;;;;;;;3.51;86.09;96954.00;6266124;28;20603;-63
2022/12/08 14:32:53;;;;;;;14.30;9.83;;;;;;;3.48;86.60;96959.44;6266975;28;20258;-63
2022/12/08 14:35:56;;;;;;;13.90;10.60;;;;;;;3.45;86.78;96958.78;6267270;28;20306;-63
2022/12/08 14:38:58;;;;;;;17.37;10.90;;;;;;;3.41;86.61;96958.13;6236705;28;20364;-63
2022/12/08 14:42:00;;;;;;;15.77;10.90;;;;;;;3.36;87.28;96955.00;6268203;28;20249;-63
2022/12/08 14:45:08;;;;;;;18.37;12.37;;;;;;;3.29;87.07;96958.94;6275463;28;20360;-63
2022/12/08 14:48:29;;;;;;;17.47;13.60;;;;;;;3.18;88.48;96958.75;6267927;28;20206;-63
2022/12/08 14:51:32;;;;;;;20.37;13.80;;;;;;;3.05;89.15;96960.44;6264673;28;20308;-63
2022/12/08 14:54:34;;;;;;;19.83;14.57;;;;;;;2.97;89.50;96956.53;6267870;28;20265;-63